sensor_id;sensor_type;location;lat;lon;timestamp;P1;durP1;ratioP1;P2;durP2;ratioP2
15878;SDS011;61999;51.514;14.614;2022-11-20T00:01:32;18.67;;;12.53;;
15878;SDS011;61999;51.514;14.614;2022-11-20T00:04:01;17.37;;;10.70;;
15878;SDS011;61999;51.514;14.614;2022-11-20T00:06:30;18.57;;;11.77;;
15878;SDS011;61999;51.514;14.614;2022-11-20T00:08:59;17.87;;;11.40;;
15878;SDS011;61999;51.514;14.614;2022-11-20T00:11:28;18.37;;;12.43;;
15878;SDS011;61999;51.514;14.614;2022-11-20T00:14:00;16.43;;;10.17;;
15878;SDS011;61999;51.514;14.614;2022-11-20T00:16:30;19.80;;;12.17;;
15878;SDS011;61999;51.514;14.614;2022-11-20T00:19:00;19.17;;;11.97;;
15878;SDS011;61999;51.514;14.614;2022-11-20T00:21:30;19.77;;;12.20;;
15878;SDS011;61999;51.514;14.614;2022-11-20T00:23:58;22.30;;;11.40;;
15878;SDS011;61999;51.514;14.614;2022-11-20T00:26:27;19.57;;;12.00;;
15878;SDS011;61999;51.514;14.614;2022-11-20T00:28:56;21.37;;;11.63;;
15878;SDS011;61999;51.514;14.614;2022-11-20T00:31:28;18.77;;;11.30;;
15878;SDS011;61999;51.514;14.614;2022-11-20T00:33:59;24.87;;;12.73;;
15878;SDS011;61999;51.514;14.614;2022-11-20T00:36:27;19.30;;;11.43;;
15878;SDS011;61999;51.514;14.614;2022-11-20T00:38:59;20.57;;;12.47;;
15878;SDS011;61999;51.514;14.614;2022-11-20T00:41:28;20.53;;;13.03;;
15878;SDS011;61999;51.514;14.614;2022-11-20T00:43:57;18.50;;;11.90;;
15878;SDS011;61999;51.514;14.614;2022-11-20T00:46:25;20.63;;;12.30;;
15878;SDS011;61999;51.514;14.614;2022-11-20T00:48:55;20.87;;;12.37;;
15878;SDS011;61999;51.514;14.614;2022-11-20T00:51:23;19.33;;;10.10;;
15878;SDS011;61999;51.514;14.614;2022-11-20T00:53:56;13.67;;;8.70;;
15878;SDS011;61999;51.514;14.614;2022-11-20T00:56:26;15.10;;;10.13;;
15878;SDS011;61999;51.514;14.614;2022-11-20T00:58:54;18.40;;;10.60;;
15878;SDS011;61999;51.514;14.614;2022-11-20T01:01:22;18.57;;;11.33;;
15878;SDS011;61999;51.514;14.614;2022-11-20T01:03:53;20.77;;;11.57;;
15878;SDS011;61999;51.514;14.614;2022-11-20T01:06:25;21.47;;;10.90;;
15878;SDS011;61999;51.514;14.614;2022-11-20T01:08:58;17.37;;;11.40;;
15878;SDS011;61999;51.514;14.614;2022-11-20T01:11:28;20.30;;;12.27;;
15878;SDS011;61999;51.514;14.614;2022-11-20T01:13:58;20.60;;;11.43;;
15878;SDS011;61999;51.514;14.614;2022-11-20T01:16:30;20.97;;;11.70;;
15878;SDS011;61999;51.514;14.614;2022-11-20T01:19:02;18.90;;;11.60;;
15878;SDS011;61999;51.514;14.614;2022-11-20T01:21:34;13.23;;;7.13;;
15878;SDS011;61999;51.514;14.614;2022-11-20T01:24:07;18.57;;;10.13;;
15878;SDS011;61999;51.514;14.614;2022-11-20T01:26:40;13.83;;;8.50;;
15878;SDS011;61999;51.514;14.614;2022-11-20T01:29:11;17.17;;;9.57;;
15878;SDS011;61999;51.514;14.614;2022-11-20T01:31:42;13.47;;;8.30;;
15878;SDS011;61999;51.514;14.614;2022-11-20T01:34:12;18.07;;;10.10;;
15878;SDS011;61999;51.514;14.614;2022-11-20T01:36:44;18.87;;;10.57;;
15878;SDS011;61999;51.514;14.614;2022-11-20T01:39:15;16.57;;;8.13;;
15878;SDS011;61999;51.514;14.614;2022-11-20T01:41:46;20.40;;;11.87;;
15878;SDS011;61999;51.514;14.614;2022-11-20T01:44:48;24.93;;;13.53;;
15878;SDS011;61999;51.514;14.614;2022-11-20T01:47:21;19.77;;;12.17;;
15878;SDS011;61999;51.514;14.614;2022-11-20T01:50:01;14.70;;;8.23;;
15878;SDS011;61999;51.514;14.614;2022-11-20T01:52:38;18.43;;;11.20;;
15878;SDS011;61999;51.514;14.614;2022-11-20T01:55:14;14.50;;;8.63;;
15878;SDS011;61999;51.514;14.614;2022-11-20T01:57:47;25.00;;;13.07;;
15878;SDS011;61999;51.514;14.614;2022-11-20T02:00:17;14.57;;;7.30;;
15878;SDS011;61999;51.514;14.614;2022-11-20T02:02:48;19.23;;;11.20;;
15878;SDS011;61999;51.514;14.614;2022-11-20T02:05:23;19.20;;;10.80;;
15878;SDS011;61999;51.514;14.614;2022-11-20T02:07:58;18.67;;;10.97;;
15878;SDS011;61999;51.514;14.614;2022-11-20T02:10:28;20.57;;;11.57;;
15878;SDS011;61999;51.514;14.614;2022-11-20T02:12:58;22.20;;;12.47;;
15878;SDS011;61999;51.514;14.614;2022-11-20T02:15:44;22.40;;;12.10;;
15878;SDS011;61999;51.514;14.614;2022-11-20T02:18:13;20.27;;;11.57;;
15878;SDS011;61999;51.514;14.614;2022-11-20T02:20:46;22.77;;;12.50;;
15878;SDS011;61999;51.514;14.614;2022-11-20T02:23:22;19.23;;;10.87;;
15878;SDS011;61999;51.514;14.614;2022-11-20T02:26:02;20.07;;;11.83;;
15878;SDS011;61999;51.514;14.614;2022-11-20T02:28:36;18.93;;;11.03;;
15878;SDS011;61999;51.514;14.614;2022-11-20T02:31:05;23.63;;;11.77;;
15878;SDS011;61999;51.514;14.614;2022-11-20T02:33:33;21.83;;;12.73;;
15878;SDS011;61999;51.514;14.614;2022-11-20T02:36:01;17.37;;;10.00;;
15878;SDS011;61999;51.514;14.614;2022-11-20T02:38:30;15.83;;;10.17;;
15878;SDS011;61999;51.514;14.614;2022-11-20T02:40:58;19.47;;;11.73;;
15878;SDS011;61999;51.514;14.614;2022-11-20T02:43:28;20.97;;;11.87;;
15878;SDS011;61999;51.514;14.614;2022-11-20T02:45:56;19.43;;;10.57;;
15878;SDS011;61999;51.514;14.614;2022-11-20T02:48:24;20.73;;;11.47;;
15878;SDS011;61999;51.514;14.614;2022-11-20T02:50:53;17.83;;;10.80;;
15878;SDS011;61999;51.514;14.614;2022-11-20T02:53:21;23.73;;;13.00;;
15878;SDS011;61999;51.514;14.614;2022-11-20T02:55:49;19.23;;;10.47;;
15878;SDS011;61999;51.514;14.614;2022-11-20T02:58:17;19.97;;;11.97;;
15878;SDS011;61999;51.514;14.614;2022-11-20T03:00:46;20.17;;;11.20;;
15878;SDS011;61999;51.514;14.614;2022-11-20T03:03:14;19.50;;;11.20;;
15878;SDS011;61999;51.514;14.614;2022-11-20T03:05:42;16.47;;;10.90;;
15878;SDS011;61999;51.514;14.614;2022-11-20T03:08:10;19.60;;;11.33;;
15878;SDS011;61999;51.514;14.614;2022-11-20T03:10:38;17.47;;;11.50;;
15878;SDS011;61999;51.514;14.614;2022-11-20T03:13:06;14.70;;;8.57;;
15878;SDS011;61999;51.514;14.614;2022-11-20T03:15:35;20.30;;;11.30;;
15878;SDS011;61999;51.514;14.614;2022-11-20T03:18:05;16.97;;;9.40;;
15878;SDS011;61999;51.514;14.614;2022-11-20T03:20:33;19.77;;;11.57;;
15878;SDS011;61999;51.514;14.614;2022-11-20T03:23:01;11.30;;;7.77;;
15878;SDS011;61999;51.514;14.614;2022-11-20T03:25:29;21.43;;;11.40;;
15878;SDS011;61999;51.514;14.614;2022-11-20T03:27:58;21.90;;;10.80;;
15878;SDS011;61999;51.514;14.614;2022-11-20T03:30:26;21.30;;;10.17;;
15878;SDS011;61999;51.514;14.614;2022-11-20T03:32:55;23.43;;;12.07;;
15878;SDS011;61999;51.514;14.614;2022-11-20T03:35:24;14.27;;;8.93;;
15878;SDS011;61999;51.514;14.614;2022-11-20T03:37:52;17.57;;;9.40;;
15878;SDS011;61999;51.514;14.614;2022-11-20T03:40:20;9.27;;;5.30;;
15878;SDS011;61999;51.514;14.614;2022-11-20T03:42:48;10.13;;;5.53;;
15878;SDS011;61999;51.514;14.614;2022-11-20T03:45:17;12.30;;;7.33;;
15878;SDS011;61999;51.514;14.614;2022-11-20T03:47:45;14.23;;;9.17;;
15878;SDS011;61999;51.514;14.614;2022-11-20T03:50:14;15.07;;;8.20;;
15878;SDS011;61999;51.514;14.614;2022-11-20T03:52:43;13.20;;;7.37;;
15878;SDS011;61999;51.514;14.614;2022-11-20T03:55:11;20.80;;;11.43;;
15878;SDS011;61999;51.514;14.614;2022-11-20T03:57:39;14.43;;;7.80;;
15878;SDS011;61999;51.514;14.614;2022-11-20T04:00:07;18.07;;;8.93;;
15878;SDS011;61999;51.514;14.614;2022-11-20T04:02:37;14.77;;;8.57;;
15878;SDS011;61999;51.514;14.614;2022-11-20T04:05:05;13.93;;;8.30;;
15878;SDS011;61999;51.514;14.614;2022-11-20T04:07:34;18.00;;;11.37;;
15878;SDS011;61999;51.514;14.614;2022-11-20T04:10:04;10.50;;;5.93;;
15878;SDS011;61999;51.514;14.614;2022-11-20T04:12:33;19.63;;;11.40;;
15878;SDS011;61999;51.514;14.614;2022-11-20T04:15:01;22.10;;;11.53;;
15878;SDS011;61999;51.514;14.614;2022-11-20T04:17:29;14.23;;;7.13;;
15878;SDS011;61999;51.514;14.614;2022-11-20T04:19:57;23.80;;;13.87;;
15878;SDS011;61999;51.514;14.614;2022-11-20T04:22:25;11.27;;;6.50;;
15878;SDS011;61999;51.514;14.614;2022-11-20T04:24:53;20.70;;;11.83;;
15878;SDS011;61999;51.514;14.614;2022-11-20T04:27:22;9.73;;;6.23;;
15878;SDS011;61999;51.514;14.614;2022-11-20T04:29:50;11.87;;;6.17;;
15878;SDS011;61999;51.514;14.614;2022-11-20T04:32:18;10.50;;;6.30;;
15878;SDS011;61999;51.514;14.614;2022-11-20T04:34:46;26.80;;;13.37;;
15878;SDS011;61999;51.514;14.614;2022-11-20T04:37:14;27.93;;;13.70;;
15878;SDS011;61999;51.514;14.614;2022-11-20T04:39:42;21.67;;;11.60;;
15878;SDS011;61999;51.514;14.614;2022-11-20T04:42:10;24.70;;;12.70;;
15878;SDS011;61999;51.514;14.614;2022-11-20T04:44:58;25.00;;;13.47;;
15878;SDS011;61999;51.514;14.614;2022-11-20T04:47:26;26.60;;;14.40;;
15878;SDS011;61999;51.514;14.614;2022-11-20T04:49:54;29.77;;;15.07;;
15878;SDS011;61999;51.514;14.614;2022-11-20T04:52:22;20.87;;;12.47;;
15878;SDS011;61999;51.514;14.614;2022-11-20T04:54:50;24.43;;;14.43;;
15878;SDS011;61999;51.514;14.614;2022-11-20T04:57:19;22.60;;;13.17;;
15878;SDS011;61999;51.514;14.614;2022-11-20T04:59:48;26.73;;;15.07;;
15878;SDS011;61999;51.514;14.614;2022-11-20T05:02:17;26.03;;;14.57;;
15878;SDS011;61999;51.514;14.614;2022-11-20T05:04:45;24.30;;;14.13;;
15878;SDS011;61999;51.514;14.614;2022-11-20T05:07:13;29.10;;;15.97;;
15878;SDS011;61999;51.514;14.614;2022-11-20T05:09:41;26.63;;;15.07;;
15878;SDS011;61999;51.514;14.614;2022-11-20T05:12:09;26.67;;;12.80;;
15878;SDS011;61999;51.514;14.614;2022-11-20T05:14:37;21.70;;;12.23;;
15878;SDS011;61999;51.514;14.614;2022-11-20T05:17:05;23.70;;;12.10;;
15878;SDS011;61999;51.514;14.614;2022-11-20T05:19:37;21.47;;;11.93;;
15878;SDS011;61999;51.514;14.614;2022-11-20T05:22:06;19.50;;;10.83;;
15878;SDS011;61999;51.514;14.614;2022-11-20T05:24:33;21.67;;;11.83;;
15878;SDS011;61999;51.514;14.614;2022-11-20T05:27:01;20.33;;;10.90;;
15878;SDS011;61999;51.514;14.614;2022-11-20T05:29:29;30.27;;;15.67;;
15878;SDS011;61999;51.514;14.614;2022-11-20T05:31:58;29.87;;;17.00;;
15878;SDS011;61999;51.514;14.614;2022-11-20T05:34:25;25.07;;;13.50;;
15878;SDS011;61999;51.514;14.614;2022-11-20T05:36:55;21.97;;;12.93;;
15878;SDS011;61999;51.514;14.614;2022-11-20T05:39:23;23.90;;;11.63;;
15878;SDS011;61999;51.514;14.614;2022-11-20T05:41:51;22.33;;;13.07;;
15878;SDS011;61999;51.514;14.614;2022-11-20T05:44:39;25.10;;;15.27;;
15878;SDS011;61999;51.514;14.614;2022-11-20T05:47:07;22.40;;;12.77;;
15878;SDS011;61999;51.514;14.614;2022-11-20T05:49:36;27.07;;;16.03;;
15878;SDS011;61999;51.514;14.614;2022-11-20T05:52:05;27.97;;;15.93;;
15878;SDS011;61999;51.514;14.614;2022-11-20T05:54:33;27.30;;;17.23;;
15878;SDS011;61999;51.514;14.614;2022-11-20T05:57:02;25.87;;;14.13;;
15878;SDS011;61999;51.514;14.614;2022-11-20T05:59:30;28.80;;;14.07;;
15878;SDS011;61999;51.514;14.614;2022-11-20T06:01:58;21.20;;;12.23;;
15878;SDS011;61999;51.514;14.614;2022-11-20T06:04:26;21.07;;;11.57;;
15878;SDS011;61999;51.514;14.614;2022-11-20T06:06:54;25.77;;;13.13;;
15878;SDS011;61999;51.514;14.614;2022-11-20T06:09:23;21.20;;;13.03;;
15878;SDS011;61999;51.514;14.614;2022-11-20T06:11:51;25.33;;;14.03;;
15878;SDS011;61999;51.514;14.614;2022-11-20T06:14:19;24.57;;;13.70;;
15878;SDS011;61999;51.514;14.614;2022-11-20T06:16:47;25.73;;;13.27;;
15878;SDS011;61999;51.514;14.614;2022-11-20T06:23:45;22.53;;;12.30;;
15878;SDS011;61999;51.514;14.614;2022-11-20T06:26:15;21.53;;;11.53;;
15878;SDS011;61999;51.514;14.614;2022-11-20T06:28:45;21.00;;;12.33;;
15878;SDS011;61999;51.514;14.614;2022-11-20T06:31:14;20.57;;;11.83;;
15878;SDS011;61999;51.514;14.614;2022-11-20T06:33:45;24.73;;;12.93;;
15878;SDS011;61999;51.514;14.614;2022-11-20T06:36:14;18.20;;;11.33;;
15878;SDS011;61999;51.514;14.614;2022-11-20T06:38:44;21.27;;;12.90;;
15878;SDS011;61999;51.514;14.614;2022-11-20T06:41:13;27.03;;;14.50;;
15878;SDS011;61999;51.514;14.614;2022-11-20T06:43:45;28.17;;;18.13;;
15878;SDS011;61999;51.514;14.614;2022-11-20T06:46:15;24.40;;;15.13;;
15878;SDS011;61999;51.514;14.614;2022-11-20T06:48:44;31.00;;;17.23;;
15878;SDS011;61999;51.514;14.614;2022-11-20T06:51:13;27.23;;;16.20;;
15878;SDS011;61999;51.514;14.614;2022-11-20T06:53:42;28.77;;;16.27;;
15878;SDS011;61999;51.514;14.614;2022-11-20T06:56:13;28.33;;;15.87;;
15878;SDS011;61999;51.514;14.614;2022-11-20T06:58:42;23.10;;;14.33;;
15878;SDS011;61999;51.514;14.614;2022-11-20T07:01:11;23.37;;;14.37;;
15878;SDS011;61999;51.514;14.614;2022-11-20T07:03:41;29.47;;;15.77;;
15878;SDS011;61999;51.514;14.614;2022-11-20T07:06:10;24.97;;;14.23;;
15878;SDS011;61999;51.514;14.614;2022-11-20T07:08:38;26.17;;;12.93;;
15878;SDS011;61999;51.514;14.614;2022-11-20T07:11:06;23.83;;;13.97;;
15878;SDS011;61999;51.514;14.614;2022-11-20T07:13:36;24.47;;;14.87;;
15878;SDS011;61999;51.514;14.614;2022-11-20T07:16:05;32.50;;;18.90;;
15878;SDS011;61999;51.514;14.614;2022-11-20T07:18:35;26.67;;;16.07;;
15878;SDS011;61999;51.514;14.614;2022-11-20T07:21:03;26.27;;;14.90;;
15878;SDS011;61999;51.514;14.614;2022-11-20T07:23:35;25.30;;;15.47;;
15878;SDS011;61999;51.514;14.614;2022-11-20T07:26:04;26.47;;;15.17;;
15878;SDS011;61999;51.514;14.614;2022-11-20T07:28:33;26.83;;;15.60;;
15878;SDS011;61999;51.514;14.614;2022-11-20T07:31:03;26.70;;;15.90;;
15878;SDS011;61999;51.514;14.614;2022-11-20T07:33:33;30.27;;;16.97;;
15878;SDS011;61999;51.514;14.614;2022-11-20T07:36:01;26.90;;;16.73;;
15878;SDS011;61999;51.514;14.614;2022-11-20T07:38:29;28.70;;;17.80;;
15878;SDS011;61999;51.514;14.614;2022-11-20T07:40:57;27.07;;;16.37;;
15878;SDS011;61999;51.514;14.614;2022-11-20T07:43:27;29.93;;;16.43;;
15878;SDS011;61999;51.514;14.614;2022-11-20T07:45:56;23.93;;;15.33;;
15878;SDS011;61999;51.514;14.614;2022-11-20T07:48:26;28.93;;;17.20;;
15878;SDS011;61999;51.514;14.614;2022-11-20T07:50:54;26.83;;;15.97;;
15878;SDS011;61999;51.514;14.614;2022-11-20T07:53:22;29.30;;;18.77;;
15878;SDS011;61999;51.514;14.614;2022-11-20T07:55:51;28.73;;;18.17;;
15878;SDS011;61999;51.514;14.614;2022-11-20T07:58:19;30.23;;;17.57;;
15878;SDS011;61999;51.514;14.614;2022-11-20T08:00:47;29.77;;;18.17;;
15878;SDS011;61999;51.514;14.614;2022-11-20T08:03:15;29.33;;;17.57;;
15878;SDS011;61999;51.514;14.614;2022-11-20T08:05:48;28.50;;;15.77;;
15878;SDS011;61999;51.514;14.614;2022-11-20T08:08:16;29.17;;;17.07;;
15878;SDS011;61999;51.514;14.614;2022-11-20T08:10:44;27.13;;;16.97;;
15878;SDS011;61999;51.514;14.614;2022-11-20T08:13:12;27.27;;;16.63;;
15878;SDS011;61999;51.514;14.614;2022-11-20T08:15:57;28.47;;;16.67;;
15878;SDS011;61999;51.514;14.614;2022-11-20T08:18:25;27.97;;;17.00;;
15878;SDS011;61999;51.514;14.614;2022-11-20T08:20:57;28.07;;;16.47;;
15878;SDS011;61999;51.514;14.614;2022-11-20T08:23:28;29.30;;;16.90;;
15878;SDS011;61999;51.514;14.614;2022-11-20T08:25:56;29.00;;;17.57;;
15878;SDS011;61999;51.514;14.614;2022-11-20T08:28:24;26.47;;;16.47;;
15878;SDS011;61999;51.514;14.614;2022-11-20T08:30:57;33.70;;;18.50;;
15878;SDS011;61999;51.514;14.614;2022-11-20T08:33:26;25.67;;;15.70;;
15878;SDS011;61999;51.514;14.614;2022-11-20T08:35:59;25.80;;;17.73;;
15878;SDS011;61999;51.514;14.614;2022-11-20T08:38:28;28.47;;;16.80;;
15878;SDS011;61999;51.514;14.614;2022-11-20T08:40:56;25.60;;;14.73;;
15878;SDS011;61999;51.514;14.614;2022-11-20T08:43:43;28.57;;;17.47;;
15878;SDS011;61999;51.514;14.614;2022-11-20T08:46:11;31.73;;;17.47;;
15878;SDS011;61999;51.514;14.614;2022-11-20T08:48:39;27.63;;;17.73;;
15878;SDS011;61999;51.514;14.614;2022-11-20T08:51:09;29.27;;;15.70;;
15878;SDS011;61999;51.514;14.614;2022-11-20T08:53:38;26.43;;;15.70;;
15878;SDS011;61999;51.514;14.614;2022-11-20T08:56:07;25.93;;;16.60;;
15878;SDS011;61999;51.514;14.614;2022-11-20T08:58:35;24.90;;;13.93;;
15878;SDS011;61999;51.514;14.614;2022-11-20T09:01:14;22.57;;;13.67;;
15878;SDS011;61999;51.514;14.614;2022-11-20T09:03:42;28.10;;;18.03;;
15878;SDS011;61999;51.514;14.614;2022-11-20T09:06:11;24.40;;;14.93;;
15878;SDS011;61999;51.514;14.614;2022-11-20T09:08:40;29.70;;;15.93;;
15878;SDS011;61999;51.514;14.614;2022-11-20T09:11:08;25.13;;;15.93;;
15878;SDS011;61999;51.514;14.614;2022-11-20T09:13:37;28.60;;;16.03;;
15878;SDS011;61999;51.514;14.614;2022-11-20T09:16:06;29.50;;;17.77;;
15878;SDS011;61999;51.514;14.614;2022-11-20T09:18:36;12.23;;;7.87;;
15878;SDS011;61999;51.514;14.614;2022-11-20T09:21:05;28.07;;;16.30;;
15878;SDS011;61999;51.514;14.614;2022-11-20T09:23:38;28.47;;;17.33;;
15878;SDS011;61999;51.514;14.614;2022-11-20T09:26:08;30.20;;;18.17;;
15878;SDS011;61999;51.514;14.614;2022-11-20T09:28:39;26.80;;;17.57;;
15878;SDS011;61999;51.514;14.614;2022-11-20T09:31:07;27.90;;;17.07;;
15878;SDS011;61999;51.514;14.614;2022-11-20T09:33:43;26.13;;;16.90;;
15878;SDS011;61999;51.514;14.614;2022-11-20T09:36:11;28.73;;;16.70;;
15878;SDS011;61999;51.514;14.614;2022-11-20T09:38:40;25.73;;;16.57;;
15878;SDS011;61999;51.514;14.614;2022-11-20T09:41:10;26.27;;;16.20;;
15878;SDS011;61999;51.514;14.614;2022-11-20T09:44:13;25.43;;;14.93;;
15878;SDS011;61999;51.514;14.614;2022-11-20T09:47:01;23.97;;;14.00;;
15878;SDS011;61999;51.514;14.614;2022-11-20T09:49:42;25.07;;;14.17;;
15878;SDS011;61999;51.514;14.614;2022-11-20T09:52:32;21.40;;;13.33;;
15878;SDS011;61999;51.514;14.614;2022-11-20T09:55:12;24.37;;;13.47;;
15878;SDS011;61999;51.514;14.614;2022-11-20T09:57:43;25.47;;;15.17;;
15878;SDS011;61999;51.514;14.614;2022-11-20T10:00:15;26.43;;;15.53;;
15878;SDS011;61999;51.514;14.614;2022-11-20T10:02:48;21.50;;;13.47;;
15878;SDS011;61999;51.514;14.614;2022-11-20T10:05:25;26.93;;;16.70;;
15878;SDS011;61999;51.514;14.614;2022-11-20T10:08:04;22.20;;;15.10;;
15878;SDS011;61999;51.514;14.614;2022-11-20T10:10:46;23.37;;;15.17;;
15878;SDS011;61999;51.514;14.614;2022-11-20T10:13:24;21.40;;;13.97;;
15878;SDS011;61999;51.514;14.614;2022-11-20T10:16:15;22.50;;;12.80;;
15878;SDS011;61999;51.514;14.614;2022-11-20T10:19:00;22.23;;;15.20;;
15878;SDS011;61999;51.514;14.614;2022-11-20T10:21:47;23.10;;;14.63;;
15878;SDS011;61999;51.514;14.614;2022-11-20T10:24:44;19.67;;;12.80;;
15878;SDS011;61999;51.514;14.614;2022-11-20T10:27:39;21.67;;;13.33;;
15878;SDS011;61999;51.514;14.614;2022-11-20T10:30:26;20.03;;;12.77;;
15878;SDS011;61999;51.514;14.614;2022-11-20T10:32:58;22.27;;;14.80;;
15878;SDS011;61999;51.514;14.614;2022-11-20T10:35:40;23.03;;;14.03;;
15878;SDS011;61999;51.514;14.614;2022-11-20T10:38:16;21.17;;;15.87;;
15878;SDS011;61999;51.514;14.614;2022-11-20T10:40:51;20.37;;;14.27;;
15878;SDS011;61999;51.514;14.614;2022-11-20T10:43:46;21.57;;;15.27;;
15878;SDS011;61999;51.514;14.614;2022-11-20T10:46:18;27.40;;;16.97;;
15878;SDS011;61999;51.514;14.614;2022-11-20T10:48:50;23.73;;;17.50;;
15878;SDS011;61999;51.514;14.614;2022-11-20T10:51:21;23.60;;;15.87;;
15878;SDS011;61999;51.514;14.614;2022-11-20T10:54:06;23.70;;;15.37;;
15878;SDS011;61999;51.514;14.614;2022-11-20T10:56:49;22.80;;;16.23;;
15878;SDS011;61999;51.514;14.614;2022-11-20T11:02:20;21.30;;;15.87;;
15878;SDS011;61999;51.514;14.614;2022-11-20T11:04:50;20.47;;;15.43;;
15878;SDS011;61999;51.514;14.614;2022-11-20T11:07:21;19.80;;;15.33;;
15878;SDS011;61999;51.514;14.614;2022-11-20T11:09:55;19.27;;;15.17;;
15878;SDS011;61999;51.514;14.614;2022-11-20T11:12:25;22.67;;;15.73;;
15878;SDS011;61999;51.514;14.614;2022-11-20T11:14:57;20.20;;;15.53;;
15878;SDS011;61999;51.514;14.614;2022-11-20T11:17:26;20.67;;;16.10;;
15878;SDS011;61999;51.514;14.614;2022-11-20T11:19:57;21.23;;;15.47;;
15878;SDS011;61999;51.514;14.614;2022-11-20T11:22:44;19.33;;;14.40;;
15878;SDS011;61999;51.514;14.614;2022-11-20T11:25:22;18.13;;;13.70;;
15878;SDS011;61999;51.514;14.614;2022-11-20T11:27:57;19.53;;;14.20;;
15878;SDS011;61999;51.514;14.614;2022-11-20T11:30:29;17.97;;;13.83;;
15878;SDS011;61999;51.514;14.614;2022-11-20T11:33:09;17.10;;;13.20;;
15878;SDS011;61999;51.514;14.614;2022-11-20T11:35:45;18.50;;;13.93;;
15878;SDS011;61999;51.514;14.614;2022-11-20T11:38:20;16.13;;;12.60;;
15878;SDS011;61999;51.514;14.614;2022-11-20T11:40:54;13.83;;;10.87;;
15878;SDS011;61999;51.514;14.614;2022-11-20T11:43:24;16.93;;;13.70;;
15878;SDS011;61999;51.514;14.614;2022-11-20T11:46:32;17.03;;;11.57;;
15878;SDS011;61999;51.514;14.614;2022-11-20T11:49:13;23.13;;;16.03;;
15878;SDS011;61999;51.514;14.614;2022-11-20T11:51:47;16.87;;;12.53;;
15878;SDS011;61999;51.514;14.614;2022-11-20T11:54:30;14.70;;;11.70;;
15878;SDS011;61999;51.514;14.614;2022-11-20T11:57:09;18.03;;;13.07;;
15878;SDS011;61999;51.514;14.614;2022-11-20T11:59:48;12.90;;;10.57;;
15878;SDS011;61999;51.514;14.614;2022-11-20T12:02:34;13.17;;;9.80;;
15878;SDS011;61999;51.514;14.614;2022-11-20T12:05:14;11.90;;;10.60;;
15878;SDS011;61999;51.514;14.614;2022-11-20T12:07:47;14.43;;;9.90;;
15878;SDS011;61999;51.514;14.614;2022-11-20T12:10:23;12.90;;;9.87;;
15878;SDS011;61999;51.514;14.614;2022-11-20T12:13:12;11.60;;;9.13;;
15878;SDS011;61999;51.514;14.614;2022-11-20T12:15:53;11.80;;;8.67;;
15878;SDS011;61999;51.514;14.614;2022-11-20T12:18:25;13.53;;;9.23;;
15878;SDS011;61999;51.514;14.614;2022-11-20T12:20:59;11.97;;;8.97;;
15878;SDS011;61999;51.514;14.614;2022-11-20T12:23:47;10.17;;;8.63;;
15878;SDS011;61999;51.514;14.614;2022-11-20T12:26:34;10.97;;;8.00;;
15878;SDS011;61999;51.514;14.614;2022-11-20T12:29:26;11.37;;;8.70;;
15878;SDS011;61999;51.514;14.614;2022-11-20T12:32:22;10.23;;;8.37;;
15878;SDS011;61999;51.514;14.614;2022-11-20T12:38:33;10.30;;;8.87;;
15878;SDS011;61999;51.514;14.614;2022-11-20T12:41:36;12.13;;;9.17;;
15878;SDS011;61999;51.514;14.614;2022-11-20T12:44:52;12.10;;;8.70;;
15878;SDS011;61999;51.514;14.614;2022-11-20T12:47:46;10.47;;;8.33;;
15878;SDS011;61999;51.514;14.614;2022-11-20T12:50:49;10.53;;;8.40;;
15878;SDS011;61999;51.514;14.614;2022-11-20T12:53:44;10.93;;;8.33;;
15878;SDS011;61999;51.514;14.614;2022-11-20T12:56:30;9.60;;;7.33;;
15878;SDS011;61999;51.514;14.614;2022-11-20T12:59:17;9.80;;;8.37;;
15878;SDS011;61999;51.514;14.614;2022-11-20T13:02:03;12.30;;;7.23;;
15878;SDS011;61999;51.514;14.614;2022-11-20T13:04:54;10.13;;;7.40;;
15878;SDS011;61999;51.514;14.614;2022-11-20T13:07:47;10.10;;;7.60;;
15878;SDS011;61999;51.514;14.614;2022-11-20T13:10:20;10.03;;;7.93;;
15878;SDS011;61999;51.514;14.614;2022-11-20T13:12:59;10.77;;;6.60;;
15878;SDS011;61999;51.514;14.614;2022-11-20T13:15:43;11.20;;;7.47;;
15878;SDS011;61999;51.514;14.614;2022-11-20T13:18:19;8.90;;;6.23;;
15878;SDS011;61999;51.514;14.614;2022-11-20T13:20:47;7.90;;;6.17;;
15878;SDS011;61999;51.514;14.614;2022-11-20T13:23:26;9.03;;;6.67;;
15878;SDS011;61999;51.514;14.614;2022-11-20T13:26:05;10.80;;;7.67;;
15878;SDS011;61999;51.514;14.614;2022-11-20T13:28:42;8.53;;;6.63;;
15878;SDS011;61999;51.514;14.614;2022-11-20T13:31:23;8.83;;;4.83;;
15878;SDS011;61999;51.514;14.614;2022-11-20T13:33:58;8.57;;;6.27;;
15878;SDS011;61999;51.514;14.614;2022-11-20T13:36:29;8.83;;;6.47;;
15878;SDS011;61999;51.514;14.614;2022-11-20T13:38:59;9.13;;;6.47;;
15878;SDS011;61999;51.514;14.614;2022-11-20T13:41:28;8.13;;;6.90;;
15878;SDS011;61999;51.514;14.614;2022-11-20T13:44:05;10.33;;;6.97;;
15878;SDS011;61999;51.514;14.614;2022-11-20T13:46:40;10.10;;;6.67;;
15878;SDS011;61999;51.514;14.614;2022-11-20T13:49:16;8.30;;;6.63;;
15878;SDS011;61999;51.514;14.614;2022-11-20T13:51:51;8.50;;;5.40;;
15878;SDS011;61999;51.514;14.614;2022-11-20T13:54:52;6.80;;;4.40;;
15878;SDS011;61999;51.514;14.614;2022-11-20T13:57:38;6.07;;;4.20;;
15878;SDS011;61999;51.514;14.614;2022-11-20T14:00:25;8.70;;;4.60;;
15878;SDS011;61999;51.514;14.614;2022-11-20T14:03:01;9.47;;;5.90;;
15878;SDS011;61999;51.514;14.614;2022-11-20T14:05:45;8.27;;;4.27;;
15878;SDS011;61999;51.514;14.614;2022-11-20T14:08:24;8.57;;;5.97;;
15878;SDS011;61999;51.514;14.614;2022-11-20T14:11:05;6.20;;;3.87;;
15878;SDS011;61999;51.514;14.614;2022-11-20T14:13:53;9.00;;;5.93;;
15878;SDS011;61999;51.514;14.614;2022-11-20T14:16:25;8.67;;;4.83;;
15878;SDS011;61999;51.514;14.614;2022-11-20T14:18:56;8.80;;;5.33;;
15878;SDS011;61999;51.514;14.614;2022-11-20T14:21:45;8.07;;;5.37;;
15878;SDS011;61999;51.514;14.614;2022-11-20T14:24:17;2.27;;;2.07;;
15878;SDS011;61999;51.514;14.614;2022-11-20T14:26:56;7.40;;;4.93;;
15878;SDS011;61999;51.514;14.614;2022-11-20T14:29:27;5.57;;;3.40;;
15878;SDS011;61999;51.514;14.614;2022-11-20T14:32:00;6.63;;;4.03;;
15878;SDS011;61999;51.514;14.614;2022-11-20T14:34:39;4.87;;;4.40;;
15878;SDS011;61999;51.514;14.614;2022-11-20T14:37:17;4.37;;;3.23;;
15878;SDS011;61999;51.514;14.614;2022-11-20T14:39:50;10.53;;;6.50;;
15878;SDS011;61999;51.514;14.614;2022-11-20T14:42:23;9.73;;;6.10;;
15878;SDS011;61999;51.514;14.614;2022-11-20T14:44:54;10.57;;;6.63;;
15878;SDS011;61999;51.514;14.614;2022-11-20T14:47:25;7.83;;;4.83;;
15878;SDS011;61999;51.514;14.614;2022-11-20T14:49:57;10.00;;;6.03;;
15878;SDS011;61999;51.514;14.614;2022-11-20T14:52:27;10.57;;;6.20;;
15878;SDS011;61999;51.514;14.614;2022-11-20T14:54:57;9.87;;;6.90;;
15878;SDS011;61999;51.514;14.614;2022-11-20T14:57:28;9.47;;;4.93;;
15878;SDS011;61999;51.514;14.614;2022-11-20T15:00:17;7.17;;;4.37;;